createdAt,value
2022-12-08T00:02:44.836Z,97426.81
2022-12-08T00:06:06.940Z,97418.94
2022-12-08T00:09:23.889Z,97417.13
2022-12-08T00:12:25.901Z,97418.69
2022-12-08T00:15:27.936Z,97422.00
2022-12-08T00:18:29.893Z,97420.31
2022-12-08T00:21:31.919Z,97408.22
2022-12-08T00:24:36.226Z,97410.75
2022-12-08T00:27:38.178Z,97409.78
2022-12-08T00:30:41.656Z,97406.25
2022-12-08T00:33:43.681Z,97415.56
2022-12-08T00:36:46.115Z,97422.38
2022-12-08T00:39:48.296Z,97408.53
2022-12-08T00:42:50.275Z,97405.94
2022-12-08T00:45:52.521Z,97412.81
2022-12-08T00:48:54.455Z,97397.25
2022-12-08T00:51:56.954Z,97398.94
2022-12-08T00:54:58.935Z,97408.31
2022-12-08T00:58:00.962Z,97409.13
2022-12-08T01:01:09.792Z,97413.41
2022-12-08T01:04:15.801Z,97408.09
2022-12-08T01:07:17.871Z,97402.97
2022-12-08T01:10:19.829Z,97405.50
2022-12-08T01:13:21.840Z,97398.56
2022-12-08T01:16:30.175Z,97395.91
2022-12-08T01:19:32.264Z,97398.44
2022-12-08T01:22:36.223Z,97391.44
2022-12-08T01:25:38.416Z,97388.78
2022-12-08T01:28:41.075Z,97386.94
2022-12-08T01:31:43.163Z,97387.69
2022-12-08T01:34:45.196Z,97385.88
2022-12-08T01:37:47.091Z,97382.28
2022-12-08T01:40:49.495Z,97387.34
2022-12-08T01:44:01.798Z,97388.16
2022-12-08T01:47:04.031Z,97390.56
2022-12-08T01:50:08.644Z,97372.34
2022-12-08T01:53:22.765Z,97370.63
2022-12-08T01:56:50.813Z,97371.50
2022-12-08T02:00:20.945Z,97365.53
2022-12-08T02:03:28.996Z,97363.84
2022-12-08T02:06:36.415Z,97370.72
2022-12-08T02:09:40.232Z,97369.72
2022-12-08T02:12:42.271Z,97361.09
2022-12-08T02:16:04.529Z,97356.81
2022-12-08T02:19:57.196Z,97352.47
2022-12-08T02:23:02.163Z,97347.22
2022-12-08T02:26:16.173Z,97342.78
2022-12-08T02:29:52.921Z,97341.03
2022-12-08T02:32:56.321Z,97330.81
2022-12-08T02:36:25.261Z,97329.06
2022-12-08T02:40:06.445Z,97323.94
2022-12-08T02:43:50.478Z,97321.28
2022-12-08T02:47:05.849Z,97309.22
2022-12-08T02:50:08.487Z,97313.56
2022-12-08T02:56:16.638Z,97315.25
2022-12-08T02:59:51.436Z,97310.09
2022-12-08T03:03:13.744Z,97310.84
2022-12-08T03:06:28.606Z,97308.25
2022-12-08T03:09:50.752Z,97303.06
2022-12-08T03:12:59.374Z,97300.47
2022-12-08T03:16:05.268Z,97294.47
2022-12-08T03:19:18.122Z,97296.97
2022-12-08T03:22:25.550Z,97285.84
2022-12-08T03:25:32.052Z,97288.44
2022-12-08T03:28:34.261Z,97282.31
2022-12-08T03:31:42.078Z,97280.66
2022-12-08T03:34:48.508Z,97279.72
2022-12-08T03:37:50.857Z,97281.34
2022-12-08T03:41:11.585Z,97271.03
2022-12-08T03:44:13.803Z,97271.88
2022-12-08T03:47:15.827Z,97270.97
2022-12-08T03:50:17.978Z,97270.84
2022-12-08T03:53:20.112Z,97263.06
2022-12-08T03:56:28.597Z,97265.59
2022-12-08T03:59:30.651Z,97254.31
2022-12-08T04:02:32.682Z,97250.81
2022-12-08T04:05:34.721Z,97251.72
2022-12-08T04:08:36.684Z,97257.81
2022-12-08T04:11:38.713Z,97250.81
2022-12-08T04:14:40.817Z,97248.13
2022-12-08T04:17:42.813Z,97247.28
2022-12-08T04:20:46.054Z,97243.97
2022-12-08T04:23:48.268Z,97247.50
2022-12-08T04:26:51.157Z,97236.31
2022-12-08T04:29:53.121Z,97236.31
2022-12-08T04:32:55.206Z,97236.31
2022-12-08T04:35:57.890Z,97239.69
2022-12-08T04:39:00.308Z,97235.28
2022-12-08T04:42:02.263Z,97229.38
2022-12-08T04:45:06.094Z,97221.59
2022-12-08T04:48:09.050Z,97229.38
2022-12-08T04:51:19.452Z,97223.28
2022-12-08T04:54:21.438Z,97221.59
2022-12-08T04:57:23.584Z,97216.34
2022-12-08T05:00:25.617Z,97215.38
2022-12-08T05:03:28.849Z,97210.88
2022-12-08T05:06:31.161Z,97212.50
2022-12-08T05:09:33.206Z,97207.22
2022-12-08T05:12:35.213Z,97196.94
2022-12-08T05:15:37.240Z,97203.03
2022-12-08T05:18:41.005Z,97197.78
2022-12-08T05:21:43.211Z,97197.78
2022-12-08T05:24:47.697Z,97201.16
2022-12-08T05:27:49.952Z,97204.56
2022-12-08T05:30:52.048Z,97207.91
2022-12-08T05:33:54.073Z,97207.84
2022-12-08T05:36:56.071Z,97210.44
2022-12-08T05:39:58.129Z,97207.84
2022-12-08T05:43:00.137Z,97210.50
2022-12-08T05:46:02.347Z,97205.41
2022-12-08T05:49:04.666Z,97207.16
2022-12-08T05:52:06.691Z,97205.41
2022-12-08T05:55:09.053Z,97201.16
2022-12-08T05:58:14.369Z,97199.41
2022-12-08T06:01:25.883Z,97196.78
2022-12-08T06:04:28.064Z,97199.28
2022-12-08T06:07:30.416Z,97197.53
2022-12-08T06:10:32.524Z,97191.44
2022-12-08T06:13:34.786Z,97183.66
2022-12-08T06:16:36.773Z,97193.13
2022-12-08T06:19:38.780Z,97185.28
2022-12-08T06:22:40.808Z,97184.44
2022-12-08T06:25:42.815Z,97186.97
2022-12-08T06:28:45.043Z,97190.34
2022-12-08T06:31:47.138Z,97190.28
2022-12-08T06:34:49.256Z,97183.25
2022-12-08T06:37:52.008Z,97182.34
2022-12-08T06:40:56.120Z,97185.63
2022-12-08T06:43:58.753Z,97184.72
2022-12-08T06:47:00.824Z,97182.91
2022-12-08T06:50:03.311Z,97191.44
2022-12-08T06:53:05.930Z,97182.41
2022-12-08T06:56:08.492Z,97176.91
2022-12-08T06:59:10.749Z,97171.22
2022-12-08T07:02:12.856Z,97185.31
2022-12-08T07:05:14.909Z,97185.97
2022-12-08T07:08:17.017Z,97180.91
2022-12-08T07:11:21.880Z,97179.66
2022-12-08T07:14:25.121Z,97177.75
2022-12-08T07:17:27.149Z,97169.34
2022-12-08T07:20:29.263Z,97174.94
2022-12-08T07:23:31.334Z,97181.56
2022-12-08T07:26:33.335Z,97174.44
2022-12-08T07:29:35.371Z,97174.88
2022-12-08T07:32:38.571Z,97176.25
2022-12-08T07:35:43.832Z,97177.84
2022-12-08T07:38:49.160Z,97183.19
2022-12-08T07:41:51.168Z,97173.97
2022-12-08T07:44:53.152Z,97180.41
2022-12-08T07:47:55.071Z,97177.28
2022-12-08T07:51:02.232Z,97185.31
2022-12-08T07:54:04.353Z,97179.78
2022-12-08T07:57:06.886Z,97180.84
2022-12-08T08:00:10.755Z,97182.03
2022-12-08T08:03:15.454Z,97178.06
2022-12-08T08:06:17.618Z,97178.66
2022-12-08T08:09:19.688Z,97180.66
2022-12-08T08:12:31.172Z,97184.19
2022-12-08T08:15:33.976Z,97174.22
2022-12-08T08:18:40.831Z,97171.41
2022-12-08T08:21:45.865Z,97174.59
2022-12-08T08:24:48.344Z,97182.63
2022-12-08T08:27:50.463Z,97188.72
2022-12-08T08:30:52.528Z,97180.41
2022-12-08T08:33:54.648Z,97185.06
2022-12-08T08:36:56.755Z,97179.22
2022-12-08T08:39:58.841Z,97190.44
2022-12-08T08:43:02.194Z,97189.91
2022-12-08T08:46:05.596Z,97181.59
2022-12-08T08:49:07.643Z,97178.13
2022-12-08T08:52:09.755Z,97178.84
2022-12-08T08:55:11.846Z,97177.66
2022-12-08T08:58:14.302Z,97180.63
2022-12-08T09:01:19.179Z,97175.22
2022-12-08T09:04:24.492Z,97181.84
2022-12-08T09:07:26.464Z,97187.34
2022-12-08T09:10:28.530Z,97180.41
2022-12-08T09:13:30.566Z,97175.91
2022-12-08T09:16:35.112Z,97181.63
2022-12-08T09:19:41.174Z,97173.50
2022-12-08T09:22:43.212Z,97169.03
2022-12-08T09:25:46.153Z,97162.03
2022-12-08T09:28:50.236Z,97153.34
2022-12-08T09:31:52.388Z,97153.69
2022-12-08T09:34:54.592Z,97149.75
2022-12-08T09:37:56.699Z,97141.53
2022-12-08T09:41:00.024Z,97141.56
2022-12-08T09:44:24.868Z,97146.19
2022-12-08T09:47:33.938Z,97138.06
2022-12-08T09:50:52.761Z,97133.97
2022-12-08T09:54:03.563Z,97122.84
2022-12-08T09:57:16.009Z,97109.56
2022-12-08T10:00:18.368Z,97104.38
2022-12-08T10:03:27.748Z,97105.34
2022-12-08T10:06:43.173Z,97097.09
2022-12-08T10:10:07.992Z,97100.19
2022-12-08T10:13:50.448Z,97095.06
2022-12-08T10:16:57.379Z,97094.84
2022-12-08T10:20:12.954Z,97090.81
2022-12-08T10:23:17.880Z,97079.09
2022-12-08T10:26:22.128Z,97073.56
2022-12-08T10:29:24.119Z,97072.09
2022-12-08T10:32:35.551Z,97071.06
2022-12-08T10:35:48.418Z,97077.00
2022-12-08T10:38:50.519Z,97071.47
2022-12-08T10:41:52.475Z,97052.72
2022-12-08T10:44:58.177Z,97057.97
2022-12-08T10:48:18.569Z,97038.94
2022-12-08T10:51:28.762Z,97042.94
2022-12-08T10:54:38.627Z,97040.00
2022-12-08T10:57:40.720Z,97035.69
2022-12-08T11:00:42.848Z,97033.09
2022-12-08T11:04:01.996Z,97029.66
2022-12-08T11:07:11.901Z,97026.31
2022-12-08T11:10:28.272Z,97017.94
2022-12-08T11:13:30.921Z,97015.53
2022-12-08T11:16:33.156Z,97003.81
2022-12-08T11:19:39.571Z,97000.47
2022-12-08T11:22:44.229Z,96999.00
2022-12-08T11:25:47.145Z,96998.59
2022-12-08T11:28:49.181Z,96996.06
2022-12-08T11:31:58.459Z,96993.56
2022-12-08T11:35:07.698Z,96991.50
2022-12-08T11:38:23.121Z,96987.06
2022-12-08T11:41:29.987Z,96988.13
2022-12-08T11:44:50.348Z,96987.41
2022-12-08T11:48:12.620Z,96994.00
2022-12-08T11:51:20.490Z,96985.22
2022-12-08T11:54:28.216Z,96991.88
2022-12-08T11:57:30.495Z,96988.75
2022-12-08T12:00:32.546Z,96989.47
2022-12-08T12:03:40.650Z,96987.81
2022-12-08T12:06:55.389Z,96985.09
2022-12-08T12:10:06.875Z,96982.06
2022-12-08T12:13:27.661Z,96971.38
2022-12-08T12:16:29.715Z,96976.09
2022-12-08T12:19:39.262Z,96974.00
2022-12-08T12:22:44.939Z,96970.34
2022-12-08T12:26:01.488Z,96970.34
2022-12-08T12:29:17.767Z,96971.81
2022-12-08T12:32:21.004Z,96967.50
2022-12-08T12:35:37.419Z,96963.44
2022-12-08T12:39:01.541Z,96965.88
2022-12-08T12:42:05.249Z,96967.00
2022-12-08T12:45:27.226Z,96973.03
2022-12-08T12:48:29.326Z,96964.88
2022-12-08T12:51:40.145Z,96970.09
2022-12-08T12:54:51.503Z,96966.47
2022-12-08T12:57:57.572Z,96963.09
2022-12-08T13:01:53.261Z,96975.44
2022-12-08T13:05:02.469Z,96962.03
2022-12-08T13:08:08.796Z,96963.63
2022-12-08T13:11:11.645Z,96961.03
2022-12-08T13:14:29.267Z,96958.00
2022-12-08T13:17:34.139Z,96950.25
2022-12-08T13:20:48.211Z,96957.34
2022-12-08T13:24:14.693Z,96949.84
2022-12-08T13:27:16.703Z,96949.84
2022-12-08T13:30:44.692Z,96943.34
2022-12-08T13:33:47.644Z,96952.97
2022-12-08T13:37:13.963Z,96950.56
2022-12-08T13:40:21.413Z,96948.66
2022-12-08T13:43:51.040Z,96955.00
2022-12-08T13:57:37.731Z,96944.84
2022-12-08T14:00:39.898Z,96963.03
2022-12-08T14:04:31.044Z,96955.09
2022-12-08T14:07:21.814Z,96953.44
2022-12-08T14:10:27.812Z,96952.59
2022-12-08T14:13:31.936Z,96954.53
2022-12-08T14:16:43.595Z,96958.41
2022-12-08T14:20:05.008Z,96955.16
2022-12-08T14:23:08.496Z,96952.72
2022-12-08T14:26:12.984Z,96943.63
2022-12-08T14:29:46.143Z,96954.00
2022-12-08T14:32:54.928Z,96959.44
2022-12-08T14:35:57.970Z,96958.78
2022-12-08T14:39:00.074Z,96958.13
2022-12-08T14:42:02.175Z,96955.00
2022-12-08T14:45:10.366Z,96958.94
2022-12-08T14:48:30.804Z,96958.75
2022-12-08T14:51:33.581Z,96960.44
2022-12-08T14:54:35.963Z,96956.53
2022-12-08T14:57:37.947Z,96964.63
2022-12-08T15:00:47.351Z,96966.41
2022-12-08T15:03:51.398Z,96967.34
2022-12-08T15:07:14.416Z,96964.00
2022-12-08T15:10:16.314Z,96968.44
2022-12-08T15:13:19.647Z,96965.66
2022-12-08T15:16:28.495Z,96966.31
2022-12-08T15:19:33.426Z,96964.44
2022-12-08T15:22:35.462Z,96967.97
2022-12-08T15:25:38.280Z,96970.88
2022-12-08T15:28:40.293Z,96971.16
2022-12-08T15:31:42.413Z,96972.91
2022-12-08T15:34:44.773Z,96973.00
2022-12-08T15:37:46.791Z,96969.59
2022-12-08T15:40:49.687Z,96976.66
2022-12-08T15:43:51.714Z,96968.09
2022-12-08T15:46:54.409Z,96971.63
2022-12-08T15:49:56.449Z,96976.75
2022-12-08T15:52:58.510Z,96973.13
2022-12-08T15:59:28.578Z,96976.75
2022-12-08T16:02:49.233Z,96975.16
2022-12-08T16:06:20.441Z,96973.75
2022-12-08T16:09:36.580Z,96969.28
2022-12-08T16:16:29.664Z,96974.47
2022-12-08T16:19:31.651Z,96980.34
2022-12-08T16:29:21.085Z,96982.28
2022-12-08T16:32:24.086Z,96985.75
2022-12-08T16:35:26.184Z,96974.00
2022-12-08T16:38:28.439Z,96973.25
2022-12-08T16:41:49.108Z,96968.91
2022-12-08T16:44:51.472Z,96969.72
2022-12-08T16:47:58.850Z,96971.41
2022-12-08T16:51:01.063Z,96971.28
2022-12-08T16:54:03.266Z,96966.84
2022-12-08T16:57:05.464Z,96971.88
2022-12-08T17:00:11.102Z,96973.63
2022-12-08T17:03:15.236Z,96972.81
2022-12-08T17:06:19.065Z,96976.34
2022-12-08T17:09:21.286Z,96973.63
2022-12-08T17:12:23.640Z,96966.84
2022-12-08T17:15:26.164Z,96972.88
2022-12-08T17:18:28.704Z,96964.06
2022-12-08T17:21:31.053Z,96970.19
2022-12-08T17:24:33.521Z,96965.84
2022-12-08T17:27:36.729Z,96969.44
2022-12-08T17:30:39.306Z,96970.38
2022-12-08T17:33:42.680Z,96965.16
2022-12-08T17:36:45.984Z,96961.84
2022-12-08T17:39:48.289Z,96955.03
2022-12-08T17:42:50.502Z,96966.38
2022-12-08T17:45:52.731Z,96968.13
2022-12-08T17:48:55.018Z,96969.81
2022-12-08T17:51:59.739Z,96955.97
2022-12-08T17:55:02.336Z,96959.50
2022-12-08T17:58:06.213Z,96958.56
2022-12-08T18:01:11.897Z,96955.03
2022-12-08T18:04:14.428Z,96954.13
2022-12-08T18:07:16.451Z,96948.91
2022-12-08T18:10:19.735Z,96948.06
2022-12-08T18:13:22.188Z,96940.25
2022-12-08T18:16:26.950Z,96939.50
2022-12-08T18:19:29.775Z,96944.78
2022-12-08T18:22:32.231Z,96948.25
2022-12-08T18:25:34.581Z,96941.34
2022-12-08T18:28:38.729Z,96931.88
2022-12-08T18:31:41.203Z,96938.00
2022-12-08T18:34:44.009Z,96931.03
2022-12-08T18:37:48.324Z,96944.03
2022-12-08T18:40:50.860Z,96951.94
2022-12-08T18:43:55.400Z,96946.00
2022-12-08T18:46:57.658Z,96945.44
2022-12-08T18:50:01.018Z,96956.75
2022-12-08T18:53:05.572Z,96960.22
2022-12-08T18:56:10.476Z,96959.19
2022-12-08T18:59:14.806Z,96949.53
2022-12-08T19:02:19.127Z,96951.09
2022-12-08T19:05:21.843Z,96957.97
2022-12-08T19:08:29.720Z,96951.00
2022-12-08T19:11:34.218Z,96954.53
2022-12-08T19:14:36.967Z,96953.63
2022-12-08T19:17:39.922Z,96950.38
2022-12-08T19:20:45.426Z,96952.22
2022-12-08T19:23:48.283Z,96951.38
2022-12-08T19:26:52.369Z,96947.94
2022-12-08T19:29:56.866Z,96968.69
2022-12-08T19:32:59.735Z,96963.41
2022-12-08T19:36:14.834Z,96962.47
2022-12-08T19:39:38.741Z,96956.50
2022-12-08T19:43:00.196Z,96950.38
2022-12-08T19:46:04.995Z,96951.22
2022-12-08T19:49:08.297Z,96951.94
2022-12-08T19:52:12.088Z,96943.28
2022-12-08T19:55:15.159Z,96940.69
2022-12-08T19:58:19.925Z,96949.34
2022-12-08T20:01:23.927Z,96944.88
2022-12-08T20:04:27.753Z,96944.13
2022-12-08T20:07:30.370Z,96944.97
2022-12-08T20:10:36.630Z,96940.59
2022-12-08T20:13:46.202Z,96945.81
2022-12-08T20:16:49.498Z,96943.28
2022-12-08T20:19:52.839Z,96950.28
2022-12-08T20:22:56.658Z,96950.28
2022-12-08T20:26:00.125Z,96943.50
2022-12-08T20:29:02.915Z,96947.69
2022-12-08T20:32:05.902Z,96943.50
2022-12-08T20:35:09.516Z,96943.56
2022-12-08T20:38:13.264Z,96945.25
2022-12-08T20:41:18.317Z,96943.75
2022-12-08T20:44:21.607Z,96940.41
2022-12-08T20:47:24.951Z,96942.06
2022-12-08T20:50:28.736Z,96947.19
2022-12-08T20:53:31.965Z,96947.19
2022-12-08T20:56:34.409Z,96947.19
2022-12-08T20:59:37.554Z,96947.28
2022-12-08T21:02:46.923Z,96952.69
2022-12-08T21:05:52.604Z,96950.34
2022-12-08T21:08:55.901Z,96951.19
2022-12-08T21:11:58.298Z,96938.91
2022-12-08T21:15:00.613Z,96949.41
2022-12-08T21:18:03.161Z,96937.25
2022-12-08T21:21:09.738Z,96942.34
2022-12-08T21:24:12.403Z,96931.09
2022-12-08T21:27:14.674Z,96930.19
2022-12-08T21:30:16.907Z,96926.66
2022-12-08T21:33:19.263Z,96934.38
2022-12-08T21:36:21.854Z,96926.56
2022-12-08T21:39:24.127Z,96928.34
2022-12-08T21:42:44.356Z,96923.13
2022-12-08T21:45:46.643Z,96921.44
2022-12-08T21:48:48.808Z,96925.72
2022-12-08T21:51:51.062Z,96924.69
2022-12-08T21:54:53.300Z,96924.69
2022-12-08T21:57:57.544Z,96923.00
2022-12-08T22:01:05.971Z,96921.44
2022-12-08T22:04:08.365Z,96936.41
2022-12-08T22:07:10.755Z,96933.78
2022-12-08T22:10:12.854Z,96929.44
2022-12-08T22:13:14.898Z,96932.78
2022-12-08T22:16:16.975Z,96920.63
2022-12-08T22:19:19.289Z,96918.09
2022-12-08T22:22:21.531Z,96911.28
2022-12-08T22:25:23.710Z,96924.41
2022-12-08T22:28:27.177Z,96917.63
2022-12-08T22:31:29.521Z,96915.28
2022-12-08T22:34:31.930Z,96935.25
2022-12-08T22:37:34.166Z,96921.50
2022-12-08T22:40:39.909Z,96916.50
2022-12-08T22:43:42.983Z,96907.94
2022-12-08T22:46:45.318Z,96911.38
2022-12-08T22:49:47.510Z,96913.06
2022-12-08T22:52:49.592Z,96912.22
2022-12-08T22:55:51.921Z,96912.22
2022-12-08T22:58:53.924Z,96904.50
2022-12-08T23:01:56.093Z,96908.78
2022-12-08T23:04:58.431Z,96903.66
2022-12-08T23:08:00.851Z,96905.31
2022-12-08T23:11:02.939Z,96910.63
2022-12-08T23:14:05.252Z,96902.91
2022-12-08T23:17:07.493Z,96903.66
2022-12-08T23:20:10.622Z,96898.38
2022-12-08T23:23:13.710Z,96908.69
2022-12-08T23:26:27.632Z,96916.28
2022-12-08T23:29:29.802Z,96907.56
2022-12-08T23:32:31.905Z,96910.06
2022-12-08T23:35:34.066Z,96909.16
2022-12-08T23:38:36.254Z,96907.38
2022-12-08T23:41:38.377Z,96905.63
2022-12-08T23:44:40.690Z,96907.31
2022-12-08T23:47:42.811Z,96908.03
2022-12-08T23:50:44.797Z,96912.22
2022-12-08T23:53:47.426Z,96915.66
2022-12-08T23:56:49.438Z,96919.09
2022-12-08T23:59:51.520Z,96908.78
